Lakewood, Colorado
Current Conditions -  °F | °C
As of 7:45 PM on Wednesday 22 Oct 2014 (Local Time) from KBJC Reporting Station
Broken Clouds Broken Clouds  
Wind Chill: 61°   Ceiling: 10000
Heat Index: 61°   Visibility: 30mi
Dew Point: 32°   Wind: 14mph
Humidity: 34%   Direction: 280°W
Pressure: 30.15"   Gusts: NA
Location:  39.71°N, 105.08°W
Report Text: KBJC 230145Z 28012KT 30SM SCT070 BKN100 16/00 A3015
Loading
Personal Weather Stations






























Interactive Weather Map
Tropical Storm Tracking
New forecast layout! Learn more

10-Day Weather Forecast

Advertisements
Track Severe Weather on mobile